sensor_id;sensor_type;location;lat;lon;timestamp;temperature;humidity
21778;DHT22;11050;52.222;20.916;2023-12-04T00:01:24;-1.40;99.90
21778;DHT22;11050;52.222;20.916;2023-12-04T00:03:51;-1.40;99.90
21778;DHT22;11050;52.222;20.916;2023-12-04T00:06:18;-1.40;99.90
21778;DHT22;11050;52.222;20.916;2023-12-04T00:08:44;-1.40;99.90
21778;DHT22;11050;52.222;20.916;2023-12-04T00:11:10;-1.30;99.90
21778;DHT22;11050;52.222;20.916;2023-12-04T00:13:36;-1.30;99.90
21778;DHT22;11050;52.222;20.916;2023-12-04T00:16:03;-1.40;99.90
21778;DHT22;11050;52.222;20.916;2023-12-04T00:18:29;-1.30;99.90
21778;DHT22;11050;52.222;20.916;2023-12-04T00:20:54;-1.30;99.90
21778;DHT22;11050;52.222;20.916;2023-12-04T00:23:20;-1.30;99.90
21778;DHT22;11050;52.222;20.916;2023-12-04T00:25:46;-1.30;99.90
21778;DHT22;11050;52.222;20.916;2023-12-04T00:28:11;-1.30;99.90
21778;DHT22;11050;52.222;20.916;2023-12-04T00:30:37;-1.30;99.90
21778;DHT22;11050;52.222;20.916;2023-12-04T00:33:03;-1.30;99.90
21778;DHT22;11050;52.222;20.916;2023-12-04T00:35:29;-1.30;99.90
21778;DHT22;11050;52.222;20.916;2023-12-04T00:37:54;-1.20;99.90
21778;DHT22;11050;52.222;20.916;2023-12-04T00:40:20;-1.30;99.90
21778;DHT22;11050;52.222;20.916;2023-12-04T00:42:46;-1.20;99.90
21778;DHT22;11050;52.222;20.916;2023-12-04T00:45:12;-1.20;99.90
21778;DHT22;11050;52.222;20.916;2023-12-04T00:47:37;-1.20;99.90
21778;DHT22;11050;52.222;20.916;2023-12-04T00:50:03;-1.20;99.90
21778;DHT22;11050;52.222;20.916;2023-12-04T00:52:29;-1.20;99.90
21778;DHT22;11050;52.222;20.916;2023-12-04T00:54:55;-1.20;99.90
21778;DHT22;11050;52.222;20.916;2023-12-04T00:57:21;-1.10;99.90
21778;DHT22;11050;52.222;20.916;2023-12-04T00:59:47;-1.10;99.90
21778;DHT22;11050;52.222;20.916;2023-12-04T01:02:12;-1.10;99.90
21778;DHT22;11050;52.222;20.916;2023-12-04T01:04:41;-1.10;99.90
21778;DHT22;11050;52.222;20.916;2023-12-04T01:07:07;-1.10;99.90
21778;DHT22;11050;52.222;20.916;2023-12-04T01:09:36;-1.10;99.90
21778;DHT22;11050;52.222;20.916;2023-12-04T01:12:03;-1.10;99.90
21778;DHT22;11050;52.222;20.916;2023-12-04T01:14:29;-1.10;99.90
21778;DHT22;11050;52.222;20.916;2023-12-04T01:16:55;-1.10;99.90
21778;DHT22;11050;52.222;20.916;2023-12-04T01:19:21;-1.00;99.90
21778;DHT22;11050;52.222;20.916;2023-12-04T01:21:47;-1.10;99.90
21778;DHT22;11050;52.222;20.916;2023-12-04T01:24:14;-1.00;99.90
21778;DHT22;11050;52.222;20.916;2023-12-04T01:26:40;-1.10;99.90
21778;DHT22;11050;52.222;20.916;2023-12-04T01:29:07;-1.10;99.90
21778;DHT22;11050;52.222;20.916;2023-12-04T01:31:32;-1.00;99.90
21778;DHT22;11050;52.222;20.916;2023-12-04T01:33:58;-1.00;99.90
21778;DHT22;11050;52.222;20.916;2023-12-04T01:36:24;-1.00;99.90
21778;DHT22;11050;52.222;20.916;2023-12-04T01:38:49;-1.00;99.90
21778;DHT22;11050;52.222;20.916;2023-12-04T01:41:15;-1.00;99.90
21778;DHT22;11050;52.222;20.916;2023-12-04T01:43:41;-1.00;99.90
21778;DHT22;11050;52.222;20.916;2023-12-04T01:46:07;-1.00;99.90
21778;DHT22;11050;52.222;20.916;2023-12-04T01:48:33;-1.00;99.90
21778;DHT22;11050;52.222;20.916;2023-12-04T01:51:00;-1.00;99.90
21778;DHT22;11050;52.222;20.916;2023-12-04T01:53:32;-1.10;99.90
21778;DHT22;11050;52.222;20.916;2023-12-04T01:55:58;-1.10;99.90
21778;DHT22;11050;52.222;20.916;2023-12-04T01:58:24;-1.10;99.90
21778;DHT22;11050;52.222;20.916;2023-12-04T02:00:50;-1.10;99.90
21778;DHT22;11050;52.222;20.916;2023-12-04T02:03:16;-1.10;99.90
21778;DHT22;11050;52.222;20.916;2023-12-04T02:05:44;-1.10;99.90
21778;DHT22;11050;52.222;20.916;2023-12-04T02:08:10;-1.10;99.90
21778;DHT22;11050;52.222;20.916;2023-12-04T02:10:36;-1.20;99.90
21778;DHT22;11050;52.222;20.916;2023-12-04T02:13:02;-1.20;99.90
21778;DHT22;11050;52.222;20.916;2023-12-04T02:15:29;-1.20;99.90
21778;DHT22;11050;52.222;20.916;2023-12-04T02:17:55;-1.20;99.90
21778;DHT22;11050;52.222;20.916;2023-12-04T02:20:21;-1.30;99.90
21778;DHT22;11050;52.222;20.916;2023-12-04T02:22:56;-1.30;99.90
21778;DHT22;11050;52.222;20.916;2023-12-04T02:25:22;-1.40;99.90
21778;DHT22;11050;52.222;20.916;2023-12-04T02:27:50;-1.40;99.90
21778;DHT22;11050;52.222;20.916;2023-12-04T02:30:19;-1.50;99.90
21778;DHT22;11050;52.222;20.916;2023-12-04T02:32:47;-1.50;99.90
21778;DHT22;11050;52.222;20.916;2023-12-04T02:35:28;-1.60;99.90
21778;DHT22;11050;52.222;20.916;2023-12-04T02:37:57;-1.60;99.90
21778;DHT22;11050;52.222;20.916;2023-12-04T02:40:24;-1.70;99.90
21778;DHT22;11050;52.222;20.916;2023-12-04T02:42:51;-1.70;99.90
21778;DHT22;11050;52.222;20.916;2023-12-04T02:45:16;-1.70;99.90
21778;DHT22;11050;52.222;20.916;2023-12-04T02:47:42;-1.70;99.90
21778;DHT22;11050;52.222;20.916;2023-12-04T02:50:08;-1.80;99.90
21778;DHT22;11050;52.222;20.916;2023-12-04T02:52:34;-1.70;99.90
21778;DHT22;11050;52.222;20.916;2023-12-04T02:55:00;-1.80;99.90
21778;DHT22;11050;52.222;20.916;2023-12-04T02:57:25;-1.70;99.90
21778;DHT22;11050;52.222;20.916;2023-12-04T02:59:51;-1.80;99.90
21778;DHT22;11050;52.222;20.916;2023-12-04T03:02:17;-1.70;99.90
21778;DHT22;11050;52.222;20.916;2023-12-04T03:04:42;-1.80;99.90
21778;DHT22;11050;52.222;20.916;2023-12-04T03:07:08;-1.80;99.90
21778;DHT22;11050;52.222;20.916;2023-12-04T03:09:34;-1.70;99.90
21778;DHT22;11050;52.222;20.916;2023-12-04T03:12:00;-1.80;99.90
21778;DHT22;11050;52.222;20.916;2023-12-04T03:14:25;-1.80;99.90
21778;DHT22;11050;52.222;20.916;2023-12-04T03:16:51;-1.70;99.90
21778;DHT22;11050;52.222;20.916;2023-12-04T03:19:17;-1.70;99.90
21778;DHT22;11050;52.222;20.916;2023-12-04T03:21:42;-1.70;99.90
21778;DHT22;11050;52.222;20.916;2023-12-04T03:24:08;-1.70;99.90
21778;DHT22;11050;52.222;20.916;2023-12-04T03:26:35;-1.70;99.90
21778;DHT22;11050;52.222;20.916;2023-12-04T03:29:00;-1.70;99.90
21778;DHT22;11050;52.222;20.916;2023-12-04T03:31:26;-1.70;99.90
21778;DHT22;11050;52.222;20.916;2023-12-04T03:33:53;-1.80;99.90
21778;DHT22;11050;52.222;20.916;2023-12-04T03:36:19;-1.80;99.90
21778;DHT22;11050;52.222;20.916;2023-12-04T03:38:45;-1.80;99.90
21778;DHT22;11050;52.222;20.916;2023-12-04T03:41:14;-1.80;99.90
21778;DHT22;11050;52.222;20.916;2023-12-04T03:43:41;-1.80;99.90
21778;DHT22;11050;52.222;20.916;2023-12-04T03:46:07;-1.80;99.90
21778;DHT22;11050;52.222;20.916;2023-12-04T03:48:33;-1.80;99.90
21778;DHT22;11050;52.222;20.916;2023-12-04T03:50:59;-1.80;99.90
21778;DHT22;11050;52.222;20.916;2023-12-04T03:53:26;-1.80;99.90
21778;DHT22;11050;52.222;20.916;2023-12-04T03:55:52;-1.80;99.90
21778;DHT22;11050;52.222;20.916;2023-12-04T03:58:18;-1.80;99.90
21778;DHT22;11050;52.222;20.916;2023-12-04T04:00:43;-1.80;99.90
21778;DHT22;11050;52.222;20.916;2023-12-04T04:03:10;-1.80;99.90
21778;DHT22;11050;52.222;20.916;2023-12-04T04:05:35;-1.80;99.90
21778;DHT22;11050;52.222;20.916;2023-12-04T04:08:10;-1.80;99.90
21778;DHT22;11050;52.222;20.916;2023-12-04T04:10:36;-1.90;99.90
21778;DHT22;11050;52.222;20.916;2023-12-04T04:13:02;-1.80;99.90
21778;DHT22;11050;52.222;20.916;2023-12-04T04:15:28;-1.90;99.90
21778;DHT22;11050;52.222;20.916;2023-12-04T04:17:53;-1.90;99.90
21778;DHT22;11050;52.222;20.916;2023-12-04T04:20:20;-1.90;99.90
21778;DHT22;11050;52.222;20.916;2023-12-04T04:22:48;-1.90;99.90
21778;DHT22;11050;52.222;20.916;2023-12-04T04:25:15;-1.90;99.90
21778;DHT22;11050;52.222;20.916;2023-12-04T04:27:41;-2.00;99.90
21778;DHT22;11050;52.222;20.916;2023-12-04T04:30:07;-2.00;99.90
21778;DHT22;11050;52.222;20.916;2023-12-04T04:32:34;-2.00;99.90
21778;DHT22;11050;52.222;20.916;2023-12-04T04:34:59;-2.00;99.90
21778;DHT22;11050;52.222;20.916;2023-12-04T04:37:25;-2.00;99.90
21778;DHT22;11050;52.222;20.916;2023-12-04T04:39:51;-2.00;99.90
21778;DHT22;11050;52.222;20.916;2023-12-04T04:42:16;-2.00;99.90
21778;DHT22;11050;52.222;20.916;2023-12-04T04:44:42;-2.00;99.90
21778;DHT22;11050;52.222;20.916;2023-12-04T04:47:08;-2.00;99.90
21778;DHT22;11050;52.222;20.916;2023-12-04T04:49:34;-2.00;99.90
21778;DHT22;11050;52.222;20.916;2023-12-04T04:52:00;-2.10;99.90
21778;DHT22;11050;52.222;20.916;2023-12-04T04:54:25;-2.10;99.90
21778;DHT22;11050;52.222;20.916;2023-12-04T04:56:51;-2.10;99.90
21778;DHT22;11050;52.222;20.916;2023-12-04T04:59:17;-2.00;99.90
21778;DHT22;11050;52.222;20.916;2023-12-04T05:01:42;-2.10;99.90
21778;DHT22;11050;52.222;20.916;2023-12-04T05:04:08;-2.10;99.90
21778;DHT22;11050;52.222;20.916;2023-12-04T05:06:34;-2.10;99.90
21778;DHT22;11050;52.222;20.916;2023-12-04T05:09:00;-2.10;99.90
21778;DHT22;11050;52.222;20.916;2023-12-04T05:11:26;-2.10;99.90
21778;DHT22;11050;52.222;20.916;2023-12-04T05:13:51;-2.10;99.90
21778;DHT22;11050;52.222;20.916;2023-12-04T05:16:17;-2.10;99.90
21778;DHT22;11050;52.222;20.916;2023-12-04T05:18:43;-2.10;99.90
21778;DHT22;11050;52.222;20.916;2023-12-04T05:21:09;-2.10;99.90
21778;DHT22;11050;52.222;20.916;2023-12-04T05:23:37;-2.10;99.90
21778;DHT22;11050;52.222;20.916;2023-12-04T05:26:05;-2.10;99.90
21778;DHT22;11050;52.222;20.916;2023-12-04T05:28:31;-2.10;99.90
21778;DHT22;11050;52.222;20.916;2023-12-04T05:30:57;-2.10;99.90
21778;DHT22;11050;52.222;20.916;2023-12-04T05:33:23;-2.10;99.90
21778;DHT22;11050;52.222;20.916;2023-12-04T05:35:49;-2.10;99.90
21778;DHT22;11050;52.222;20.916;2023-12-04T05:38:18;-2.10;99.90
21778;DHT22;11050;52.222;20.916;2023-12-04T05:40:44;-2.20;99.90
21778;DHT22;11050;52.222;20.916;2023-12-04T05:43:11;-2.10;99.90
21778;DHT22;11050;52.222;20.916;2023-12-04T05:45:37;-2.10;99.90
21778;DHT22;11050;52.222;20.916;2023-12-04T05:48:03;-2.10;99.90
21778;DHT22;11050;52.222;20.916;2023-12-04T05:50:29;-2.10;99.90
21778;DHT22;11050;52.222;20.916;2023-12-04T05:52:55;-2.20;99.90
21778;DHT22;11050;52.222;20.916;2023-12-04T05:55:21;-2.20;99.90
21778;DHT22;11050;52.222;20.916;2023-12-04T05:57:46;-2.10;99.90
21778;DHT22;11050;52.222;20.916;2023-12-04T06:00:12;-2.10;99.90
21778;DHT22;11050;52.222;20.916;2023-12-04T06:02:39;-2.20;99.90
21778;DHT22;11050;52.222;20.916;2023-12-04T06:05:06;-2.10;99.90
21778;DHT22;11050;52.222;20.916;2023-12-04T06:07:33;-2.20;99.90
21778;DHT22;11050;52.222;20.916;2023-12-04T06:09:59;-2.20;99.90
21778;DHT22;11050;52.222;20.916;2023-12-04T06:12:25;-2.20;99.90
21778;DHT22;11050;52.222;20.916;2023-12-04T06:14:51;-2.20;99.90
21778;DHT22;11050;52.222;20.916;2023-12-04T06:17:17;-2.20;99.90
21778;DHT22;11050;52.222;20.916;2023-12-04T06:19:43;-2.20;99.90
21778;DHT22;11050;52.222;20.916;2023-12-04T06:22:09;-2.20;99.90
21778;DHT22;11050;52.222;20.916;2023-12-04T06:24:35;-2.20;99.90
21778;DHT22;11050;52.222;20.916;2023-12-04T06:27:01;-2.20;99.90
21778;DHT22;11050;52.222;20.916;2023-12-04T06:29:27;-2.20;99.90
21778;DHT22;11050;52.222;20.916;2023-12-04T06:31:54;-2.10;99.90
21778;DHT22;11050;52.222;20.916;2023-12-04T06:34:20;-2.10;99.90
21778;DHT22;11050;52.222;20.916;2023-12-04T06:36:46;-2.10;99.90
21778;DHT22;11050;52.222;20.916;2023-12-04T06:39:13;-2.10;99.90
21778;DHT22;11050;52.222;20.916;2023-12-04T06:41:42;-2.20;99.90
21778;DHT22;11050;52.222;20.916;2023-12-04T06:44:09;-2.10;99.90
21778;DHT22;11050;52.222;20.916;2023-12-04T06:46:37;-2.10;99.90
21778;DHT22;11050;52.222;20.916;2023-12-04T06:49:05;-2.10;99.90
21778;DHT22;11050;52.222;20.916;2023-12-04T06:51:34;-2.10;99.90
21778;DHT22;11050;52.222;20.916;2023-12-04T06:54:00;-2.10;99.90
21778;DHT22;11050;52.222;20.916;2023-12-04T06:56:25;-2.10;99.90
21778;DHT22;11050;52.222;20.916;2023-12-04T06:58:51;-2.10;99.90
21778;DHT22;11050;52.222;20.916;2023-12-04T07:01:17;-2.10;99.90
21778;DHT22;11050;52.222;20.916;2023-12-04T07:03:43;-2.00;99.90
21778;DHT22;11050;52.222;20.916;2023-12-04T07:06:08;-2.10;99.90
21778;DHT22;11050;52.222;20.916;2023-12-04T07:08:34;-2.00;99.90
21778;DHT22;11050;52.222;20.916;2023-12-04T07:11:00;-2.00;99.90
21778;DHT22;11050;52.222;20.916;2023-12-04T07:13:26;-2.00;99.90
21778;DHT22;11050;52.222;20.916;2023-12-04T07:15:52;-2.00;99.90
21778;DHT22;11050;52.222;20.916;2023-12-04T07:18:17;-2.00;99.90
21778;DHT22;11050;52.222;20.916;2023-12-04T07:20:43;-2.00;99.90
21778;DHT22;11050;52.222;20.916;2023-12-04T07:23:09;-1.90;99.90
21778;DHT22;11050;52.222;20.916;2023-12-04T07:25:34;-1.90;99.90
21778;DHT22;11050;52.222;20.916;2023-12-04T07:28:00;-1.90;99.90
21778;DHT22;11050;52.222;20.916;2023-12-04T07:30:26;-1.90;99.90
21778;DHT22;11050;52.222;20.916;2023-12-04T07:32:52;-1.90;99.90
21778;DHT22;11050;52.222;20.916;2023-12-04T07:35:18;-1.90;99.90
21778;DHT22;11050;52.222;20.916;2023-12-04T07:37:44;-1.90;99.90
21778;DHT22;11050;52.222;20.916;2023-12-04T07:40:10;-1.80;99.90
21778;DHT22;11050;52.222;20.916;2023-12-04T07:42:37;-1.80;99.90
21778;DHT22;11050;52.222;20.916;2023-12-04T07:45:04;-1.80;99.90
21778;DHT22;11050;52.222;20.916;2023-12-04T07:47:30;-1.80;99.90
21778;DHT22;11050;52.222;20.916;2023-12-04T07:49:56;-1.80;99.90
21778;DHT22;11050;52.222;20.916;2023-12-04T07:52:21;-1.70;99.90
21778;DHT22;11050;52.222;20.916;2023-12-04T07:54:47;-1.70;99.90
21778;DHT22;11050;52.222;20.916;2023-12-04T07:57:13;-1.60;99.90
21778;DHT22;11050;52.222;20.916;2023-12-04T07:59:39;-1.60;99.90
21778;DHT22;11050;52.222;20.916;2023-12-04T08:02:05;-1.60;99.90
21778;DHT22;11050;52.222;20.916;2023-12-04T08:04:31;-1.60;99.90
21778;DHT22;11050;52.222;20.916;2023-12-04T08:06:57;-1.50;99.90
21778;DHT22;11050;52.222;20.916;2023-12-04T08:09:22;-1.50;99.90
21778;DHT22;11050;52.222;20.916;2023-12-04T08:11:48;-1.50;99.90
21778;DHT22;11050;52.222;20.916;2023-12-04T08:14:14;-1.50;99.90
21778;DHT22;11050;52.222;20.916;2023-12-04T08:16:41;-1.40;99.90
21778;DHT22;11050;52.222;20.916;2023-12-04T08:19:07;-1.40;99.90
21778;DHT22;11050;52.222;20.916;2023-12-04T08:21:33;-1.40;99.90
21778;DHT22;11050;52.222;20.916;2023-12-04T08:23:59;-1.50;99.90
21778;DHT22;11050;52.222;20.916;2023-12-04T08:26:25;-1.40;99.90
21778;DHT22;11050;52.222;20.916;2023-12-04T08:28:52;-1.50;99.90
21778;DHT22;11050;52.222;20.916;2023-12-04T08:31:18;-1.50;99.90
21778;DHT22;11050;52.222;20.916;2023-12-04T08:33:44;-1.50;99.90
21778;DHT22;11050;52.222;20.916;2023-12-04T08:36:11;-1.50;99.90
21778;DHT22;11050;52.222;20.916;2023-12-04T08:38:37;-1.40;99.90
21778;DHT22;11050;52.222;20.916;2023-12-04T08:41:04;-1.40;99.90
21778;DHT22;11050;52.222;20.916;2023-12-04T08:43:30;-1.40;99.90
21778;DHT22;11050;52.222;20.916;2023-12-04T08:45:56;-1.40;99.90
21778;DHT22;11050;52.222;20.916;2023-12-04T08:48:22;-1.40;99.90
21778;DHT22;11050;52.222;20.916;2023-12-04T08:50:48;-1.40;99.90
21778;DHT22;11050;52.222;20.916;2023-12-04T08:53:14;-1.40;99.90
21778;DHT22;11050;52.222;20.916;2023-12-04T08:55:40;-1.40;99.90
21778;DHT22;11050;52.222;20.916;2023-12-04T08:58:05;-1.40;99.90
21778;DHT22;11050;52.222;20.916;2023-12-04T09:00:32;-1.50;99.90
21778;DHT22;11050;52.222;20.916;2023-12-04T09:02:58;-1.40;99.90
21778;DHT22;11050;52.222;20.916;2023-12-04T09:05:24;-1.50;99.90
21778;DHT22;11050;52.222;20.916;2023-12-04T09:07:50;-1.50;99.90
21778;DHT22;11050;52.222;20.916;2023-12-04T09:10:15;-1.40;99.90
21778;DHT22;11050;52.222;20.916;2023-12-04T09:12:42;-1.40;99.90
21778;DHT22;11050;52.222;20.916;2023-12-04T09:15:08;-1.40;99.90
21778;DHT22;11050;52.222;20.916;2023-12-04T09:17:34;-1.30;99.90
21778;DHT22;11050;52.222;20.916;2023-12-04T09:19:59;-1.30;99.90
21778;DHT22;11050;52.222;20.916;2023-12-04T09:22:25;-1.30;99.90
21778;DHT22;11050;52.222;20.916;2023-12-04T09:24:51;-1.30;99.90
21778;DHT22;11050;52.222;20.916;2023-12-04T09:27:16;-1.20;99.90
21778;DHT22;11050;52.222;20.916;2023-12-04T09:29:42;-1.20;99.90
21778;DHT22;11050;52.222;20.916;2023-12-04T09:32:09;-1.10;99.90
21778;DHT22;11050;52.222;20.916;2023-12-04T09:34:35;-1.10;99.90
21778;DHT22;11050;52.222;20.916;2023-12-04T09:37:01;-1.10;99.90
21778;DHT22;11050;52.222;20.916;2023-12-04T09:39:28;-1.10;99.90
21778;DHT22;11050;52.222;20.916;2023-12-04T09:41:55;-1.10;99.90
21778;DHT22;11050;52.222;20.916;2023-12-04T09:44:22;-1.00;99.90
21778;DHT22;11050;52.222;20.916;2023-12-04T09:46:51;-1.10;99.90
21778;DHT22;11050;52.222;20.916;2023-12-04T09:49:17;-1.10;99.90
21778;DHT22;11050;52.222;20.916;2023-12-04T09:51:44;-1.10;99.90
21778;DHT22;11050;52.222;20.916;2023-12-04T09:54:11;-1.10;99.90
21778;DHT22;11050;52.222;20.916;2023-12-04T09:56:37;-1.20;99.90
21778;DHT22;11050;52.222;20.916;2023-12-04T09:59:05;-1.20;99.90
21778;DHT22;11050;52.222;20.916;2023-12-04T10:01:33;-1.10;99.90
21778;DHT22;11050;52.222;20.916;2023-12-04T10:04:02;-1.20;99.90
21778;DHT22;11050;52.222;20.916;2023-12-04T10:06:30;-1.10;99.90
21778;DHT22;11050;52.222;20.916;2023-12-04T10:08:56;-1.10;99.90
21778;DHT22;11050;52.222;20.916;2023-12-04T10:11:24;-1.00;99.90
21778;DHT22;11050;52.222;20.916;2023-12-04T10:13:50;-1.00;99.90
21778;DHT22;11050;52.222;20.916;2023-12-04T10:16:36;-1.00;99.90
21778;DHT22;11050;52.222;20.916;2023-12-04T10:19:18;-1.00;99.90
21778;DHT22;11050;52.222;20.916;2023-12-04T10:21:58;-0.90;99.90
21778;DHT22;11050;52.222;20.916;2023-12-04T10:24:39;-0.90;99.90
21778;DHT22;11050;52.222;20.916;2023-12-04T10:27:06;-0.80;99.90
21778;DHT22;11050;52.222;20.916;2023-12-04T10:29:48;-0.80;99.90
21778;DHT22;11050;52.222;20.916;2023-12-04T10:32:20;-0.80;99.90
21778;DHT22;11050;52.222;20.916;2023-12-04T10:34:49;-0.70;99.90
21778;DHT22;11050;52.222;20.916;2023-12-04T10:37:16;-0.70;99.90
21778;DHT22;11050;52.222;20.916;2023-12-04T10:39:46;-0.60;99.90
21778;DHT22;11050;52.222;20.916;2023-12-04T10:42:26;-0.50;99.90
21778;DHT22;11050;52.222;20.916;2023-12-04T10:44:57;-0.50;99.90
21778;DHT22;11050;52.222;20.916;2023-12-04T10:47:24;-0.30;99.90
21778;DHT22;11050;52.222;20.916;2023-12-04T10:49:51;-0.20;99.90
21778;DHT22;11050;52.222;20.916;2023-12-04T10:52:18;-0.10;99.90
21778;DHT22;11050;52.222;20.916;2023-12-04T10:54:48;0.00;99.90
21778;DHT22;11050;52.222;20.916;2023-12-04T10:57:36;0.00;99.90
21778;DHT22;11050;52.222;20.916;2023-12-04T11:00:04;0.10;99.90
21778;DHT22;11050;52.222;20.916;2023-12-04T11:02:34;0.20;99.90
21778;DHT22;11050;52.222;20.916;2023-12-04T11:05:08;0.30;99.90
21778;DHT22;11050;52.222;20.916;2023-12-04T11:07:40;0.30;99.90
21778;DHT22;11050;52.222;20.916;2023-12-04T11:10:11;0.30;99.90
21778;DHT22;11050;52.222;20.916;2023-12-04T11:12:40;0.30;99.90
21778;DHT22;11050;52.222;20.916;2023-12-04T11:15:14;0.30;99.90
21778;DHT22;11050;52.222;20.916;2023-12-04T11:17:44;0.30;99.90
21778;DHT22;11050;52.222;20.916;2023-12-04T11:20:18;0.30;99.90
21778;DHT22;11050;52.222;20.916;2023-12-04T11:22:49;0.20;99.90
21778;DHT22;11050;52.222;20.916;2023-12-04T11:25:17;0.20;99.90
21778;DHT22;11050;52.222;20.916;2023-12-04T11:27:43;0.10;99.90
21778;DHT22;11050;52.222;20.916;2023-12-04T11:30:10;0.20;99.90
21778;DHT22;11050;52.222;20.916;2023-12-04T11:32:48;0.20;99.90
21778;DHT22;11050;52.222;20.916;2023-12-04T11:35:15;0.10;99.90
21778;DHT22;11050;52.222;20.916;2023-12-04T11:37:46;0.10;99.90
21778;DHT22;11050;52.222;20.916;2023-12-04T11:40:15;0.10;99.90
21778;DHT22;11050;52.222;20.916;2023-12-04T11:42:41;0.10;99.90
21778;DHT22;11050;52.222;20.916;2023-12-04T11:45:08;0.10;99.90
21778;DHT22;11050;52.222;20.916;2023-12-04T11:47:52;0.20;99.90
21778;DHT22;11050;52.222;20.916;2023-12-04T11:50:20;0.20;99.90
21778;DHT22;11050;52.222;20.916;2023-12-04T11:52:47;0.30;99.90
21778;DHT22;11050;52.222;20.916;2023-12-04T11:55:25;0.30;99.90
21778;DHT22;11050;52.222;20.916;2023-12-04T11:57:54;0.30;99.90
21778;DHT22;11050;52.222;20.916;2023-12-04T12:00:23;0.30;99.90
21778;DHT22;11050;52.222;20.916;2023-12-04T12:05:23;0.30;99.90
21778;DHT22;11050;52.222;20.916;2023-12-04T12:07:50;0.30;99.90
21778;DHT22;11050;52.222;20.916;2023-12-04T12:10:16;0.30;99.90
21778;DHT22;11050;52.222;20.916;2023-12-04T12:12:43;0.30;99.90
21778;DHT22;11050;52.222;20.916;2023-12-04T12:15:12;0.30;99.90
21778;DHT22;11050;52.222;20.916;2023-12-04T12:17:40;0.30;99.90
21778;DHT22;11050;52.222;20.916;2023-12-04T12:20:08;0.30;99.90
21778;DHT22;11050;52.222;20.916;2023-12-04T12:22:36;0.30;99.90
21778;DHT22;11050;52.222;20.916;2023-12-04T12:25:08;0.30;99.90
21778;DHT22;11050;52.222;20.916;2023-12-04T12:27:34;0.30;99.90
21778;DHT22;11050;52.222;20.916;2023-12-04T12:30:00;0.20;99.90
21778;DHT22;11050;52.222;20.916;2023-12-04T12:32:26;0.30;99.90
21778;DHT22;11050;52.222;20.916;2023-12-04T12:34:53;0.30;99.90
21778;DHT22;11050;52.222;20.916;2023-12-04T12:37:20;0.30;99.90
21778;DHT22;11050;52.222;20.916;2023-12-04T12:39:46;0.30;99.90
21778;DHT22;11050;52.222;20.916;2023-12-04T12:42:27;0.30;99.90
21778;DHT22;11050;52.222;20.916;2023-12-04T12:44:54;0.30;99.90
21778;DHT22;11050;52.222;20.916;2023-12-04T12:47:25;0.30;99.90
21778;DHT22;11050;52.222;20.916;2023-12-04T12:49:52;0.30;99.90
21778;DHT22;11050;52.222;20.916;2023-12-04T12:52:18;0.30;99.90
21778;DHT22;11050;52.222;20.916;2023-12-04T12:54:45;0.30;99.90
21778;DHT22;11050;52.222;20.916;2023-12-04T12:57:12;0.30;99.90
21778;DHT22;11050;52.222;20.916;2023-12-04T12:59:39;0.30;99.90
21778;DHT22;11050;52.222;20.916;2023-12-04T13:02:05;0.30;99.90
21778;DHT22;11050;52.222;20.916;2023-12-04T13:04:42;0.30;99.90
21778;DHT22;11050;52.222;20.916;2023-12-04T13:07:09;0.30;99.90
21778;DHT22;11050;52.222;20.916;2023-12-04T13:09:36;0.30;99.90
21778;DHT22;11050;52.222;20.916;2023-12-04T13:12:06;0.30;99.90
21778;DHT22;11050;52.222;20.916;2023-12-04T13:14:33;0.30;99.90
21778;DHT22;11050;52.222;20.916;2023-12-04T13:17:03;0.20;99.90
21778;DHT22;11050;52.222;20.916;2023-12-04T13:19:29;0.20;99.90
21778;DHT22;11050;52.222;20.916;2023-12-04T13:21:57;0.20;99.90
21778;DHT22;11050;52.222;20.916;2023-12-04T13:24:23;0.20;99.90
21778;DHT22;11050;52.222;20.916;2023-12-04T13:26:48;0.10;99.90
21778;DHT22;11050;52.222;20.916;2023-12-04T13:29:14;0.10;99.90
21778;DHT22;11050;52.222;20.916;2023-12-04T13:31:41;0.10;99.90
21778;DHT22;11050;52.222;20.916;2023-12-04T13:34:07;0.00;99.90
21778;DHT22;11050;52.222;20.916;2023-12-04T13:36:34;0.00;99.90
21778;DHT22;11050;52.222;20.916;2023-12-04T13:39:01;0.00;99.90
21778;DHT22;11050;52.222;20.916;2023-12-04T13:41:30;0.00;99.90
21778;DHT22;11050;52.222;20.916;2023-12-04T13:44:15;-0.10;99.90
21778;DHT22;11050;52.222;20.916;2023-12-04T13:46:41;-0.10;99.90
21778;DHT22;11050;52.222;20.916;2023-12-04T13:49:07;-0.10;99.90
21778;DHT22;11050;52.222;20.916;2023-12-04T13:51:33;-0.10;99.90
21778;DHT22;11050;52.222;20.916;2023-12-04T13:54:00;-0.10;99.90
21778;DHT22;11050;52.222;20.916;2023-12-04T13:56:40;-0.10;99.90
21778;DHT22;11050;52.222;20.916;2023-12-04T13:59:18;-0.20;99.90
21778;DHT22;11050;52.222;20.916;2023-12-04T14:01:45;-0.20;99.90
21778;DHT22;11050;52.222;20.916;2023-12-04T14:04:12;-0.20;99.90
21778;DHT22;11050;52.222;20.916;2023-12-04T14:06:38;-0.20;99.90
21778;DHT22;11050;52.222;20.916;2023-12-04T14:09:04;-0.20;99.90
21778;DHT22;11050;52.222;20.916;2023-12-04T14:11:38;-0.20;99.90
21778;DHT22;11050;52.222;20.916;2023-12-04T14:14:04;-0.30;99.90
21778;DHT22;11050;52.222;20.916;2023-12-04T14:16:30;-0.30;99.90
21778;DHT22;11050;52.222;20.916;2023-12-04T14:18:56;-0.30;99.90
21778;DHT22;11050;52.222;20.916;2023-12-04T14:21:22;-0.40;99.90
21778;DHT22;11050;52.222;20.916;2023-12-04T14:23:48;-0.40;99.90
21778;DHT22;11050;52.222;20.916;2023-12-04T14:26:14;-0.40;99.90
21778;DHT22;11050;52.222;20.916;2023-12-04T14:28:40;-0.40;99.90
21778;DHT22;11050;52.222;20.916;2023-12-04T14:31:06;-0.40;99.90
21778;DHT22;11050;52.222;20.916;2023-12-04T14:33:33;-0.50;99.90
21778;DHT22;11050;52.222;20.916;2023-12-04T14:35:59;-0.50;99.90
21778;DHT22;11050;52.222;20.916;2023-12-04T14:38:24;-0.60;99.90
21778;DHT22;11050;52.222;20.916;2023-12-04T14:40:50;-0.60;99.90
21778;DHT22;11050;52.222;20.916;2023-12-04T14:43:16;-0.70;99.90
21778;DHT22;11050;52.222;20.916;2023-12-04T14:45:42;-0.70;99.90
21778;DHT22;11050;52.222;20.916;2023-12-04T14:48:07;-0.70;99.90
21778;DHT22;11050;52.222;20.916;2023-12-04T14:50:33;-0.70;99.90
21778;DHT22;11050;52.222;20.916;2023-12-04T14:53:04;-0.80;99.90
21778;DHT22;11050;52.222;20.916;2023-12-04T14:55:42;-0.80;99.90
21778;DHT22;11050;52.222;20.916;2023-12-04T14:58:31;-0.80;99.90
21778;DHT22;11050;52.222;20.916;2023-12-04T15:01:06;-0.90;99.90
21778;DHT22;11050;52.222;20.916;2023-12-04T15:03:50;-0.90;99.90
21778;DHT22;11050;52.222;20.916;2023-12-04T15:06:34;-0.90;99.90
21778;DHT22;11050;52.222;20.916;2023-12-04T15:09:18;-0.90;99.90
21778;DHT22;11050;52.222;20.916;2023-12-04T15:11:49;-1.00;99.90
21778;DHT22;11050;52.222;20.916;2023-12-04T15:14:34;-1.00;99.90
21778;DHT22;11050;52.222;20.916;2023-12-04T15:17:25;-1.00;99.90
21778;DHT22;11050;52.222;20.916;2023-12-04T15:19:53;-1.00;99.90
21778;DHT22;11050;52.222;20.916;2023-12-04T15:22:42;-1.00;99.90